Terminal Aerodrome Forecast
Issued by NWS

Home | Current Version | Previous Version | Text Only | Print | Product List | Glossary On
Versions: 1 2 3 4 5 6 7 8 9 10 11 12 13 14 15 16 17 18 19 20 21 22 23 24 25 26 27 28
064
FTUS43 KDLH 121126
TAFHYR
TAF
KHYR 121126Z 1212/1312 31004KT P6SM SCT025
     FM121800 26005KT P6SM BKN080
     FM130300 16004KT 4SM -SN OVC018
     FM130800 15006KT 2SM -SN OVC010=

USA.gov is the U.S. government's official web portal to all federal, state and local government web resources and services.